DLH2LC EDDH-EDDF
Flight info
| Callsign | DLH2LC |
|---|---|
| Flight time | 0h 46m |
| Altitude | 30000 |
| Route | AMLUH2G AMLUH M852 DENIX DCT RIMET/N0456F310 T157 KOKEB/N0399F230 T157 KERAX KERAX5A |
| Aircraft | A21N/M-SDE2E3FGHIRWXY/LB1 |
Departure
| Time | 2026-05-06 18:20 |
|---|---|
| Airport | Hamburg Helmut Schmidt Airport (EDDH) |
Arrival
| Time | 2026-05-06 19:07 |
|---|---|
| Airport | Frankfurt Main Airport (EDDF) |
| Time | Latitude | Longitude | Altitude | Speed | Heading |
|---|---|---|---|---|---|
| 2026-05-06 17:58 | 53.62840 | 10.00207 | 39 ft | 0 kts | 64° |
| 2026-05-06 18:13 | 53.62835 | 10.00188 | 38 ft | 2 kts | 63° |
| 2026-05-06 18:13 | 53.62830 | 10.00172 | 38 ft | 1 kts | 63° |
| 2026-05-06 18:13 | 53.62822 | 10.00151 | 38 ft | 2 kts | 44° |
| 2026-05-06 18:13 | 53.62810 | 10.00136 | 38 ft | 2 kts | 27° |
| 2026-05-06 18:14 | 53.62797 | 10.00128 | 38 ft | 2 kts | 9° |
| 2026-05-06 18:14 | 53.62781 | 10.00127 | 38 ft | 2 kts | 351° |
| 2026-05-06 18:14 | 53.62771 | 10.00132 | 39 ft | 0 kts | 337° |
| 2026-05-06 18:14 | 53.62764 | 10.00137 | 39 ft | 0 kts | 334° |
| 2026-05-06 18:16 | 53.62767 | 10.00135 | 39 ft | 1 kts | 335° |
| 2026-05-06 18:17 | 53.62790 | 10.00116 | 38 ft | 5 kts | 335° |
| 2026-05-06 18:17 | 53.62828 | 10.00059 | 36 ft | 8 kts | 290° |
| 2026-05-06 18:17 | 53.62821 | 9.99988 | 35 ft | 0 kts | 233° |
| 2026-05-06 18:17 | 53.62821 | 9.99987 | 35 ft | 0 kts | 233° |
| 2026-05-06 18:18 | 53.62820 | 9.99987 | 35 ft | 0 kts | 232° |
| 2026-05-06 18:18 | 53.62819 | 9.99980 | 35 ft | 1 kts | 256° |
| 2026-05-06 18:18 | 53.62819 | 9.99961 | 34 ft | 3 kts | 274° |
| 2026-05-06 18:18 | 53.62822 | 9.99893 | 33 ft | 8 kts | 271° |
| 2026-05-06 18:19 | 53.62845 | 9.99781 | 31 ft | 11 kts | 313° |
| 2026-05-06 18:19 | 53.62920 | 9.99700 | 30 ft | 18 kts | 334° |
| 2026-05-06 18:19 | 53.63266 | 9.99404 | 31 ft | 92 kts | 333° |
| 2026-05-06 18:19 | 53.64028 | 9.98742 | 40 ft | 152 kts | 333° |
| 2026-05-06 18:20 | 53.65100 | 9.97817 | 290 ft | 181 kts | 335° |
| 2026-05-06 18:20 | 53.66186 | 9.96881 | 1107 ft | 176 kts | 337° |
| 2026-05-06 18:20 | 53.67257 | 9.95955 | 1849 ft | 176 kts | 340° |
| 2026-05-06 18:20 | 53.68338 | 9.95075 | 2475 ft | 170 kts | 345° |
| 2026-05-06 18:21 | 53.69498 | 9.94621 | 2852 ft | 177 kts | 1° |
| 2026-05-06 18:21 | 53.70770 | 9.94598 | 3143 ft | 193 kts | 5° |
| 2026-05-06 18:21 | 53.72150 | 9.94803 | 3368 ft | 208 kts | 21° |
| 2026-05-06 18:21 | 53.73324 | 9.96295 | 3673 ft | 222 kts | 57° |
| 2026-05-06 18:22 | 53.73809 | 9.98733 | 4447 ft | 223 kts | 79° |
| 2026-05-06 18:22 | 53.74065 | 10.01336 | 5205 ft | 226 kts | 79° |
| 2026-05-06 18:22 | 53.74016 | 10.03992 | 5858 ft | 235 kts | 104° |
| 2026-05-06 18:22 | 53.73298 | 10.06542 | 6348 ft | 251 kts | 116° |
| 2026-05-06 18:23 | 53.72401 | 10.09168 | 6800 ft | 266 kts | 117° |
| 2026-05-06 18:23 | 53.71464 | 10.11905 | 7480 ft | 271 kts | 117° |
| 2026-05-06 18:23 | 53.70536 | 10.14641 | 8197 ft | 275 kts | 117° |
| 2026-05-06 18:23 | 53.69581 | 10.17473 | 8883 ft | 280 kts | 118° |
| 2026-05-06 18:24 | 53.68381 | 10.20039 | 9474 ft | 288 kts | 140° |
| 2026-05-06 18:24 | 53.66599 | 10.21583 | 9983 ft | 293 kts | 163° |
| 2026-05-06 18:24 | 53.64601 | 10.22461 | 10495 ft | 303 kts | 165° |
| 2026-05-06 18:24 | 53.62529 | 10.23358 | 10805 ft | 319 kts | 165° |
| 2026-05-06 18:25 | 53.60307 | 10.24341 | 11109 ft | 335 kts | 165° |
| 2026-05-06 18:25 | 53.58024 | 10.25370 | 11378 ft | 351 kts | 165° |
| 2026-05-06 18:25 | 53.55615 | 10.26466 | 11775 ft | 362 kts | 165° |
| 2026-05-06 18:25 | 53.53154 | 10.27590 | 12395 ft | 365 kts | 165° |
| 2026-05-06 18:26 | 53.50710 | 10.28705 | 13042 ft | 367 kts | 165° |
| 2026-05-06 18:26 | 53.48239 | 10.29831 | 13630 ft | 370 kts | 166° |
| 2026-05-06 18:26 | 53.45765 | 10.30958 | 14231 ft | 372 kts | 166° |
| 2026-05-06 18:26 | 53.43296 | 10.32081 | 14855 ft | 373 kts | 166° |
| 2026-05-06 18:27 | 53.40780 | 10.33219 | 15386 ft | 376 kts | 166° |
| 2026-05-06 18:27 | 53.38251 | 10.34359 | 15913 ft | 379 kts | 166° |
| 2026-05-06 18:27 | 53.35699 | 10.35506 | 16431 ft | 382 kts | 166° |
| 2026-05-06 18:27 | 53.33122 | 10.36664 | 16933 ft | 385 kts | 166° |
| 2026-05-06 18:28 | 53.30571 | 10.37808 | 17440 ft | 386 kts | 167° |
| 2026-05-06 18:28 | 53.27956 | 10.38981 | 17930 ft | 389 kts | 166° |
| 2026-05-06 18:28 | 53.25351 | 10.40146 | 18403 ft | 391 kts | 166° |
| 2026-05-06 18:28 | 53.22702 | 10.41330 | 18874 ft | 393 kts | 166° |
| 2026-05-06 18:29 | 53.20069 | 10.42504 | 19319 ft | 396 kts | 166° |
| 2026-05-06 18:29 | 53.17401 | 10.43693 | 19757 ft | 398 kts | 166° |
| 2026-05-06 18:29 | 53.14723 | 10.44745 | 20165 ft | 400 kts | 171° |
| 2026-05-06 18:29 | 53.11961 | 10.45277 | 20562 ft | 401 kts | 178° |
| 2026-05-06 18:30 | 53.09159 | 10.45219 | 20947 ft | 403 kts | 185° |
| 2026-05-06 18:30 | 53.06382 | 10.44849 | 21350 ft | 405 kts | 186° |
| 2026-05-06 18:30 | 53.03580 | 10.44461 | 21730 ft | 407 kts | 186° |
| 2026-05-06 18:30 | 53.00745 | 10.44066 | 22097 ft | 410 kts | 186° |
| 2026-05-06 18:31 | 52.97884 | 10.43670 | 22457 ft | 413 kts | 186° |
| 2026-05-06 18:31 | 52.95038 | 10.43279 | 22808 ft | 415 kts | 185° |
| 2026-05-06 18:31 | 52.92142 | 10.42883 | 23155 ft | 418 kts | 186° |
| 2026-05-06 18:31 | 52.89225 | 10.42486 | 23494 ft | 420 kts | 186° |
| 2026-05-06 18:32 | 52.86326 | 10.42093 | 23838 ft | 422 kts | 186° |
| 2026-05-06 18:32 | 52.83416 | 10.41697 | 24182 ft | 424 kts | 186° |
| 2026-05-06 18:32 | 52.80493 | 10.41299 | 24526 ft | 425 kts | 186° |
| 2026-05-06 18:32 | 52.77537 | 10.40897 | 24870 ft | 426 kts | 186° |
| 2026-05-06 18:33 | 52.74586 | 10.40496 | 25193 ft | 428 kts | 186° |
| 2026-05-06 18:33 | 52.71619 | 10.40093 | 25502 ft | 430 kts | 186° |
| 2026-05-06 18:33 | 52.68621 | 10.39687 | 25791 ft | 432 kts | 185° |
| 2026-05-06 18:33 | 52.65651 | 10.39287 | 26083 ft | 433 kts | 185° |
| 2026-05-06 18:34 | 52.62626 | 10.38881 | 26402 ft | 434 kts | 186° |
| 2026-05-06 18:34 | 52.59620 | 10.38477 | 26714 ft | 435 kts | 185° |
| 2026-05-06 18:34 | 52.56623 | 10.38076 | 26998 ft | 436 kts | 186° |
| 2026-05-06 18:34 | 52.53590 | 10.37668 | 27269 ft | 438 kts | 186° |
| 2026-05-06 18:35 | 52.50574 | 10.37265 | 27532 ft | 439 kts | 186° |
| 2026-05-06 18:35 | 52.47545 | 10.36860 | 27909 ft | 438 kts | 186° |
| 2026-05-06 18:35 | 52.44512 | 10.36454 | 28331 ft | 436 kts | 185° |
| 2026-05-06 18:35 | 52.41523 | 10.36054 | 28651 ft | 436 kts | 185° |
| 2026-05-06 18:36 | 52.38493 | 10.35650 | 28899 ft | 438 kts | 185° |
| 2026-05-06 18:36 | 52.35442 | 10.35248 | 29165 ft | 439 kts | 186° |
| 2026-05-06 18:36 | 52.32436 | 10.34852 | 29458 ft | 439 kts | 186° |
| 2026-05-06 18:36 | 52.29385 | 10.34448 | 29745 ft | 439 kts | 186° |
| 2026-05-06 18:37 | 52.24325 | 10.33778 | 29800 ft | 439 kts | 186° |
| 2026-05-06 18:37 | 52.17218 | 10.32834 | 29795 ft | 439 kts | 186° |
| 2026-05-06 18:38 | 52.11165 | 10.32038 | 29793 ft | 438 kts | 186° |
| 2026-05-06 18:38 | 52.05114 | 10.31243 | 29785 ft | 438 kts | 186° |
| 2026-05-06 18:39 | 51.99048 | 10.30446 | 29790 ft | 439 kts | 186° |
| 2026-05-06 18:40 | 51.90008 | 10.29268 | 29787 ft | 436 kts | 187° |
| 2026-05-06 18:40 | 51.83958 | 10.28479 | 29789 ft | 435 kts | 187° |
| 2026-05-06 18:41 | 51.77954 | 10.27699 | 29786 ft | 433 kts | 187° |
| 2026-05-06 18:41 | 51.71959 | 10.26922 | 29786 ft | 432 kts | 187° |
| 2026-05-06 18:42 | 51.66004 | 10.26153 | 29787 ft | 431 kts | 187° |
| 2026-05-06 18:42 | 51.60021 | 10.25380 | 29783 ft | 431 kts | 186° |
| 2026-05-06 18:43 | 51.54079 | 10.24616 | 29780 ft | 429 kts | 186° |
| 2026-05-06 18:43 | 51.48114 | 10.23849 | 29429 ft | 433 kts | 186° |
| 2026-05-06 18:43 | 51.45120 | 10.23463 | 28736 ft | 435 kts | 186° |
| 2026-05-06 18:44 | 51.42101 | 10.23075 | 28043 ft | 437 kts | 186° |
| 2026-05-06 18:44 | 51.39104 | 10.22693 | 27371 ft | 440 kts | 186° |
| 2026-05-06 18:44 | 51.36014 | 10.22300 | 26681 ft | 444 kts | 186° |
| 2026-05-06 18:44 | 51.32957 | 10.21995 | 26006 ft | 447 kts | 184° |
| 2026-05-06 18:45 | 51.29857 | 10.21917 | 25333 ft | 451 kts | 182° |
| 2026-05-06 18:45 | 51.26696 | 10.21852 | 24651 ft | 455 kts | 183° |
| 2026-05-06 18:45 | 51.23537 | 10.21777 | 24035 ft | 454 kts | 183° |
| 2026-05-06 18:45 | 51.21458 | 10.21731 | 23818 ft | 444 kts | 183° |
| 2026-05-06 18:46 | 51.17467 | 10.21500 | 23752 ft | 416 kts | 190° |
| 2026-05-06 18:46 | 51.14826 | 10.20082 | 23514 ft | 402 kts | 209° |
| 2026-05-06 18:46 | 51.12430 | 10.17792 | 23076 ft | 398 kts | 212° |
| 2026-05-06 18:46 | 51.10088 | 10.15506 | 22621 ft | 395 kts | 212° |
| 2026-05-06 18:47 | 51.07766 | 10.13273 | 22171 ft | 392 kts | 212° |
| 2026-05-06 18:47 | 51.05443 | 10.11076 | 21725 ft | 390 kts | 212° |
| 2026-05-06 18:47 | 51.03106 | 10.08889 | 21272 ft | 388 kts | 211° |
| 2026-05-06 18:47 | 51.00783 | 10.06730 | 20828 ft | 386 kts | 211° |
| 2026-05-06 18:48 | 50.98472 | 10.04599 | 20394 ft | 384 kts | 211° |
| 2026-05-06 18:48 | 50.96189 | 10.02498 | 19951 ft | 382 kts | 211° |
| 2026-05-06 18:48 | 50.93894 | 10.00389 | 19506 ft | 380 kts | 211° |
| 2026-05-06 18:48 | 50.91625 | 9.98309 | 19073 ft | 378 kts | 211° |
| 2026-05-06 18:49 | 50.89363 | 9.96239 | 18644 ft | 376 kts | 211° |
| 2026-05-06 18:49 | 50.87089 | 9.94163 | 18205 ft | 374 kts | 211° |
| 2026-05-06 18:49 | 50.84844 | 9.92113 | 17774 ft | 372 kts | 211° |
| 2026-05-06 18:49 | 50.82627 | 9.90092 | 17355 ft | 369 kts | 211° |
| 2026-05-06 18:50 | 50.80417 | 9.88077 | 16924 ft | 368 kts | 211° |
| 2026-05-06 18:50 | 50.78221 | 9.86081 | 16514 ft | 366 kts | 211° |
| 2026-05-06 18:50 | 50.76025 | 9.84088 | 16093 ft | 364 kts | 211° |
| 2026-05-06 18:50 | 50.73815 | 9.82081 | 15658 ft | 363 kts | 211° |
| 2026-05-06 18:51 | 50.71640 | 9.80110 | 15235 ft | 361 kts | 211° |
| 2026-05-06 18:51 | 50.69474 | 9.78149 | 14804 ft | 360 kts | 211° |
| 2026-05-06 18:51 | 50.67320 | 9.76201 | 14384 ft | 358 kts | 211° |
| 2026-05-06 18:51 | 50.65191 | 9.74277 | 13964 ft | 356 kts | 211° |
| 2026-05-06 18:52 | 50.63054 | 9.72348 | 13543 ft | 354 kts | 211° |
| 2026-05-06 18:52 | 50.60930 | 9.70433 | 13123 ft | 353 kts | 211° |
| 2026-05-06 18:52 | 50.58787 | 9.68502 | 12698 ft | 350 kts | 211° |
| 2026-05-06 18:52 | 50.56710 | 9.66633 | 12271 ft | 349 kts | 211° |
| 2026-05-06 18:53 | 50.54592 | 9.64730 | 11843 ft | 347 kts | 211° |
| 2026-05-06 18:53 | 50.52525 | 9.62874 | 11421 ft | 345 kts | 211° |
| 2026-05-06 18:53 | 50.50493 | 9.60951 | 10997 ft | 342 kts | 217° |
| 2026-05-06 18:53 | 50.48611 | 9.58645 | 10783 ft | 340 kts | 217° |
| 2026-05-06 18:54 | 50.46724 | 9.56461 | 10785 ft | 341 kts | 218° |
| 2026-05-06 18:54 | 50.44839 | 9.54231 | 10778 ft | 339 kts | 218° |
| 2026-05-06 18:54 | 50.42965 | 9.52005 | 10419 ft | 335 kts | 218° |
| 2026-05-06 18:54 | 50.41096 | 9.49793 | 9827 ft | 336 kts | 218° |
| 2026-05-06 18:55 | 50.39263 | 9.47583 | 9310 ft | 334 kts | 221° |
| 2026-05-06 18:55 | 50.37637 | 9.45057 | 8816 ft | 331 kts | 228° |
| 2026-05-06 18:55 | 50.36088 | 9.42401 | 8331 ft | 328 kts | 229° |
| 2026-05-06 18:55 | 50.34577 | 9.39780 | 7845 ft | 325 kts | 229° |
| 2026-05-06 18:56 | 50.33067 | 9.37168 | 7341 ft | 323 kts | 229° |
| 2026-05-06 18:56 | 50.31568 | 9.34590 | 6901 ft | 319 kts | 229° |
| 2026-05-06 18:56 | 50.30069 | 9.32021 | 6783 ft | 316 kts | 228° |
| 2026-05-06 18:56 | 50.28640 | 9.29571 | 6789 ft | 302 kts | 228° |
| 2026-05-06 18:57 | 50.27214 | 9.27123 | 6794 ft | 301 kts | 229° |
| 2026-05-06 18:57 | 50.25821 | 9.24741 | 6783 ft | 296 kts | 229° |
| 2026-05-06 18:57 | 50.24475 | 9.22457 | 6778 ft | 279 kts | 229° |
| 2026-05-06 18:57 | 50.23171 | 9.20257 | 6605 ft | 269 kts | 228° |
| 2026-05-06 18:58 | 50.21913 | 9.18143 | 6315 ft | 264 kts | 229° |
| 2026-05-06 18:58 | 50.20669 | 9.16057 | 5927 ft | 263 kts | 230° |
| 2026-05-06 18:58 | 50.19474 | 9.13937 | 5531 ft | 263 kts | 232° |
| 2026-05-06 18:58 | 50.18425 | 9.11646 | 5133 ft | 260 kts | 242° |
| 2026-05-06 18:59 | 50.17704 | 9.09093 | 4989 ft | 257 kts | 253° |
| 2026-05-06 18:59 | 50.17179 | 9.06406 | 4983 ft | 259 kts | 255° |
| 2026-05-06 18:59 | 50.16648 | 9.03719 | 4977 ft | 259 kts | 253° |
| 2026-05-06 18:59 | 50.16081 | 9.01064 | 4982 ft | 260 kts | 252° |
| 2026-05-06 19:00 | 50.15478 | 8.98413 | 4987 ft | 260 kts | 251° |
| 2026-05-06 19:00 | 50.14856 | 8.95782 | 4980 ft | 256 kts | 251° |
| 2026-05-06 19:00 | 50.14247 | 8.93274 | 4971 ft | 240 kts | 251° |
| 2026-05-06 19:00 | 50.13861 | 8.91700 | 4965 ft | 230 kts | 251° |
| 2026-05-06 19:01 | 50.13129 | 8.88727 | 5039 ft | 203 kts | 251° |
| 2026-05-06 19:01 | 50.12656 | 8.86807 | 5022 ft | 184 kts | 251° |
| 2026-05-06 19:01 | 50.12214 | 8.85004 | 4884 ft | 175 kts | 251° |
| 2026-05-06 19:01 | 50.11785 | 8.83244 | 4636 ft | 174 kts | 251° |
| 2026-05-06 19:02 | 50.11351 | 8.81466 | 4382 ft | 174 kts | 252° |
| 2026-05-06 19:02 | 50.10922 | 8.79702 | 4127 ft | 174 kts | 252° |
| 2026-05-06 19:02 | 50.10496 | 8.77949 | 3874 ft | 174 kts | 252° |
| 2026-05-06 19:02 | 50.10073 | 8.76205 | 3625 ft | 173 kts | 252° |
| 2026-05-06 19:03 | 50.09649 | 8.74454 | 3410 ft | 175 kts | 253° |
| 2026-05-06 19:03 | 50.09222 | 8.72692 | 3121 ft | 173 kts | 253° |
| 2026-05-06 19:03 | 50.08799 | 8.70940 | 2873 ft | 173 kts | 253° |
| 2026-05-06 19:03 | 50.08377 | 8.69191 | 2627 ft | 172 kts | 253° |
| 2026-05-06 19:04 | 50.07956 | 8.67441 | 2385 ft | 171 kts | 253° |
| 2026-05-06 19:04 | 50.07544 | 8.65734 | 2148 ft | 170 kts | 253° |
| 2026-05-06 19:04 | 50.07124 | 8.63983 | 1908 ft | 172 kts | 253° |
| 2026-05-06 19:04 | 50.06715 | 8.62285 | 1670 ft | 161 kts | 253° |
| 2026-05-06 19:05 | 50.06339 | 8.60725 | 1436 ft | 150 kts | 253° |
| 2026-05-06 19:05 | 50.05987 | 8.59258 | 1216 ft | 139 kts | 253° |
| 2026-05-06 19:05 | 50.05656 | 8.57871 | 1031 ft | 138 kts | 253° |
| 2026-05-06 19:05 | 50.05319 | 8.56467 | 835 ft | 138 kts | 253° |
| 2026-05-06 19:06 | 50.04985 | 8.55074 | 630 ft | 137 kts | 253° |
| 2026-05-06 19:06 | 50.04659 | 8.53698 | 448 ft | 136 kts | 253° |
| 2026-05-06 19:06 | 50.04341 | 8.52348 | 363 ft | 122 kts | 253° |
| 2026-05-06 19:06 | 50.04105 | 8.51369 | 359 ft | 73 kts | 251° |
| 2026-05-06 19:07 | 50.03939 | 8.50973 | 355 ft | 29 kts | 220° |
| 2026-05-06 19:07 | 50.03844 | 8.50851 | 353 ft | 25 kts | 201° |
| 2026-05-06 19:07 | 50.03814 | 8.51062 | 356 ft | 19 kts | 68° |
| 2026-05-06 19:07 | 50.03857 | 8.51253 | 357 ft | 18 kts | 71° |
| 2026-05-06 19:08 | 50.03902 | 8.51434 | 357 ft | 17 kts | 69° |
| 2026-05-06 19:08 | 50.03945 | 8.51617 | 357 ft | 17 kts | 69° |
| 2026-05-06 19:08 | 50.03993 | 8.51799 | 356 ft | 18 kts | 70° |
| 2026-05-06 19:08 | 50.04042 | 8.52009 | 353 ft | 22 kts | 70° |
| 2026-05-06 19:09 | 50.04107 | 8.52262 | 355 ft | 28 kts | 66° |
| 2026-05-06 19:09 | 50.04179 | 8.52603 | 357 ft | 41 kts | 67° |
| 2026-05-06 19:09 | 50.04307 | 8.53115 | 350 ft | 58 kts | 71° |
| 2026-05-06 19:09 | 50.04408 | 8.53690 | 350 ft | 44 kts | 85° |
| 2026-05-06 19:10 | 50.04440 | 8.54148 | 352 ft | 40 kts | 84° |
| 2026-05-06 19:10 | 50.04439 | 8.54536 | 351 ft | 31 kts | 109° |
| 2026-05-06 19:10 | 50.04294 | 8.54770 | 349 ft | 30 kts | 152° |
| 2026-05-06 19:10 | 50.04133 | 8.54873 | 349 ft | 19 kts | 160° |
| 2026-05-06 19:11 | 50.04069 | 8.54910 | 347 ft | 0 kts | 159° |
| 2026-05-06 19:13 | 50.04063 | 8.54914 | 347 ft | 3 kts | 159° |
| 2026-05-06 19:13 | 50.03998 | 8.54952 | 346 ft | 17 kts | 159° |
| 2026-05-06 19:13 | 50.03865 | 8.55068 | 345 ft | 22 kts | 118° |
| 2026-05-06 19:13 | 50.03889 | 8.55283 | 347 ft | 19 kts | 69° |
| 2026-05-06 19:14 | 50.03938 | 8.55476 | 348 ft | 19 kts | 69° |
| 2026-05-06 19:14 | 50.03983 | 8.55668 | 348 ft | 16 kts | 71° |
| 2026-05-06 19:14 | 50.04017 | 8.55810 | 347 ft | 11 kts | 69° |
| 2026-05-06 19:14 | 50.04036 | 8.55894 | 348 ft | 2 kts | 71° |
| 2026-05-06 19:15 | 50.04037 | 8.55899 | 349 ft | 0 kts | 73° |
| 2026-05-06 19:15 | 50.04040 | 8.55911 | 349 ft | 4 kts | 69° |
| 2026-05-06 19:15 | 50.04088 | 8.55960 | 351 ft | 13 kts | 6° |
| 2026-05-06 19:15 | 50.04165 | 8.55931 | 352 ft | 5 kts | 338° |
| 2026-05-06 19:16 | 50.04172 | 8.55926 | 353 ft | 0 kts | 339° |
| 2026-05-06 19:16 | 50.04166 | 8.55930 | 352 ft | 0 kts | 339° |
| 2026-05-06 19:16 | 50.04167 | 8.55930 | 352 ft | 0 kts | 339° |
| 2026-05-06 19:21 | 50.04177 | 8.55923 | 353 ft | 3 kts | 341° |
| 2026-05-06 19:21 | 50.04232 | 8.55959 | 355 ft | 14 kts | 49° |
| 2026-05-06 19:21 | 50.04321 | 8.56062 | 359 ft | 16 kts | 354° |
| 2026-05-06 19:21 | 50.04424 | 8.56049 | 361 ft | 14 kts | 32° |
| 2026-05-06 19:22 | 50.04468 | 8.56179 | 362 ft | 11 kts | 70° |
| 2026-05-06 19:22 | 50.04446 | 8.56263 | 361 ft | 9 kts | 161° |